sensor_id;sensor_type;location;lat;lon;timestamp;pressure;altitude;pressure_sealevel;temperature;humidity
60646;BME280;46462;32.608;-117.032;2022-10-28T00:00:27;99450.24;;;27.83;38.82
60646;BME280;46462;32.608;-117.032;2022-10-28T00:03:00;99452.53;;;27.83;38.81
60646;BME280;46462;32.608;-117.032;2022-10-28T00:05:28;99455.68;;;27.81;38.86
60646;BME280;46462;32.608;-117.032;2022-10-28T00:07:58;99452.57;;;27.83;38.80
60646;BME280;46462;32.608;-117.032;2022-10-28T00:10:28;99451.36;;;27.87;38.75
60646;BME280;46462;32.608;-117.032;2022-10-28T00:12:58;99455.27;;;27.88;38.71
60646;BME280;46462;32.608;-117.032;2022-10-28T00:15:28;99454.49;;;27.96;38.55
60646;BME280;46462;32.608;-117.032;2022-10-28T00:17:59;99453.55;;;27.95;38.59
60646;BME280;46462;32.608;-117.032;2022-10-28T00:20:30;99455.48;;;27.93;38.62
60646;BME280;46462;32.608;-117.032;2022-10-28T00:22:59;99462.38;;;28.07;38.32
60646;BME280;46462;32.608;-117.032;2022-10-28T00:25:29;99464.17;;;28.03;38.40
60646;BME280;46462;32.608;-117.032;2022-10-28T00:27:59;99461.65;;;27.95;38.60
60646;BME280;46462;32.608;-117.032;2022-10-28T00:30:29;99463.63;;;28.08;38.30
60646;BME280;46462;32.608;-117.032;2022-10-28T00:32:59;99467.16;;;28.09;38.24
60646;BME280;46462;32.608;-117.032;2022-10-28T00:35:29;99467.59;;;28.22;38.02
60646;BME280;46462;32.608;-117.032;2022-10-28T00:38:00;99470.68;;;28.16;38.14
60646;BME280;46462;32.608;-117.032;2022-10-28T00:40:33;99475.34;;;28.25;37.93
60646;BME280;46462;32.608;-117.032;2022-10-28T00:43:00;99480.34;;;28.15;38.13
60646;BME280;46462;32.608;-117.032;2022-10-28T00:45:30;99483.34;;;28.14;38.19
60646;BME280;46462;32.608;-117.032;2022-10-28T00:48:02;99482.20;;;28.12;38.23
60646;BME280;46462;32.608;-117.032;2022-10-28T00:50:39;99487.00;;;28.12;38.19
60646;BME280;46462;32.608;-117.032;2022-10-28T00:53:07;99494.01;;;28.17;38.13
60646;BME280;46462;32.608;-117.032;2022-10-28T00:55:31;99499.78;;;28.17;38.19
60646;BME280;46462;32.608;-117.032;2022-10-28T00:58:03;99502.43;;;28.10;38.35
60646;BME280;46462;32.608;-117.032;2022-10-28T01:00:31;99504.27;;;28.13;38.28
60646;BME280;46462;32.608;-117.032;2022-10-28T01:03:01;99502.89;;;28.15;38.19
60646;BME280;46462;32.608;-117.032;2022-10-28T01:05:33;99506.43;;;28.12;38.34
60646;BME280;46462;32.608;-117.032;2022-10-28T01:08:03;99506.54;;;28.22;38.20
60646;BME280;46462;32.608;-117.032;2022-10-28T01:10:49;99506.91;;;28.20;38.21
60646;BME280;46462;32.608;-117.032;2022-10-28T01:13:09;99503.86;;;28.13;38.38
60646;BME280;46462;32.608;-117.032;2022-10-28T01:15:36;99504.35;;;28.09;38.50
60646;BME280;46462;32.608;-117.032;2022-10-28T01:18:10;99506.97;;;28.03;38.62
60646;BME280;46462;32.608;-117.032;2022-10-28T01:23:07;99511.12;;;27.98;38.81
60646;BME280;46462;32.608;-117.032;2022-10-28T01:28:10;99517.21;;;27.99;38.84
60646;BME280;46462;32.608;-117.032;2022-10-28T01:30:41;99520.09;;;27.96;38.88
60646;BME280;46462;32.608;-117.032;2022-10-28T01:33:06;99521.13;;;27.94;38.90
60646;BME280;46462;32.608;-117.032;2022-10-28T01:35:39;99528.28;;;27.97;38.87
60646;BME280;46462;32.608;-117.032;2022-10-28T01:38:14;99533.57;;;27.93;38.92
60646;BME280;46462;32.608;-117.032;2022-10-28T01:40:36;99536.95;;;27.93;38.87
60646;BME280;46462;32.608;-117.032;2022-10-28T01:43:09;99542.17;;;27.90;38.94
60646;BME280;46462;32.608;-117.032;2022-10-28T01:45:36;99546.64;;;27.88;39.02
60646;BME280;46462;32.608;-117.032;2022-10-28T01:48:08;99546.83;;;27.88;38.99
60646;BME280;46462;32.608;-117.032;2022-10-28T01:50:37;99549.79;;;27.88;39.02
60646;BME280;46462;32.608;-117.032;2022-10-28T01:53:08;99554.75;;;27.84;39.08
60646;BME280;46462;32.608;-117.032;2022-10-28T01:55:36;99554.12;;;27.82;39.17
60646;BME280;46462;32.608;-117.032;2022-10-28T01:58:06;99556.64;;;27.83;39.11
60646;BME280;46462;32.608;-117.032;2022-10-28T02:00:35;99559.21;;;27.82;39.14
60646;BME280;46462;32.608;-117.032;2022-10-28T02:03:06;99559.98;;;27.80;39.14
60646;BME280;46462;32.608;-117.032;2022-10-28T02:05:40;99563.24;;;27.79;39.20
60646;BME280;46462;32.608;-117.032;2022-10-28T02:08:16;99564.67;;;27.79;39.20
60646;BME280;46462;32.608;-117.032;2022-10-28T02:10:37;99566.00;;;27.76;39.19
60646;BME280;46462;32.608;-117.032;2022-10-28T02:13:09;99568.54;;;27.78;39.14
60646;BME280;46462;32.608;-117.032;2022-10-28T02:15:41;99571.89;;;27.78;39.10
60646;BME280;46462;32.608;-117.032;2022-10-28T02:18:14;99573.40;;;27.78;39.07
60646;BME280;46462;32.608;-117.032;2022-10-28T02:20:44;99575.01;;;27.77;39.08
60646;BME280;46462;32.608;-117.032;2022-10-28T02:23:14;99578.58;;;27.80;38.98
60646;BME280;46462;32.608;-117.032;2022-10-28T02:25:41;99582.24;;;27.79;38.98
60646;BME280;46462;32.608;-117.032;2022-10-28T02:28:08;99582.57;;;27.88;38.68
60646;BME280;46462;32.608;-117.032;2022-10-28T02:30:41;99588.07;;;27.84;38.74
60646;BME280;46462;32.608;-117.032;2022-10-28T02:33:11;99591.68;;;27.85;38.67
60646;BME280;46462;32.608;-117.032;2022-10-28T02:35:40;99590.83;;;27.78;38.88
60646;BME280;46462;32.608;-117.032;2022-10-28T02:38:10;99593.16;;;27.83;38.64
60646;BME280;46462;32.608;-117.032;2022-10-28T02:40:37;99594.16;;;27.81;38.66
60646;BME280;46462;32.608;-117.032;2022-10-28T02:43:08;99597.13;;;27.75;38.82
60646;BME280;46462;32.608;-117.032;2022-10-28T02:45:40;99594.41;;;27.74;38.79
60646;BME280;46462;32.608;-117.032;2022-10-28T02:48:11;99598.64;;;27.74;38.83
60646;BME280;46462;32.608;-117.032;2022-10-28T02:50:40;99602.60;;;27.70;38.89
60646;BME280;46462;32.608;-117.032;2022-10-28T02:53:13;99604.21;;;27.69;38.85
60646;BME280;46462;32.608;-117.032;2022-10-28T02:55:41;99603.46;;;27.70;38.79
60646;BME280;46462;32.608;-117.032;2022-10-28T02:58:08;99605.75;;;27.67;38.92
60646;BME280;46462;32.608;-117.032;2022-10-28T03:00:43;99607.80;;;27.63;38.96
60646;BME280;46462;32.608;-117.032;2022-10-28T03:03:08;99607.93;;;27.65;38.90
60646;BME280;46462;32.608;-117.032;2022-10-28T03:05:38;99608.83;;;27.63;38.97
60646;BME280;46462;32.608;-117.032;2022-10-28T03:08:08;99608.79;;;27.71;38.73
60646;BME280;46462;32.608;-117.032;2022-10-28T03:10:38;99610.74;;;27.63;38.94
60646;BME280;46462;32.608;-117.032;2022-10-28T03:13:08;99613.76;;;27.59;38.99
60646;BME280;46462;32.608;-117.032;2022-10-28T03:15:39;99616.13;;;27.65;38.80
60646;BME280;46462;32.608;-117.032;2022-10-28T03:18:09;99620.61;;;27.61;39.00
60646;BME280;46462;32.608;-117.032;2022-10-28T03:20:39;99619.36;;;27.56;39.03
60646;BME280;46462;32.608;-117.032;2022-10-28T03:23:09;99622.66;;;27.54;39.09
60646;BME280;46462;32.608;-117.032;2022-10-28T03:25:39;99625.27;;;27.53;39.02
60646;BME280;46462;32.608;-117.032;2022-10-28T03:28:10;99627.59;;;27.52;39.00
60646;BME280;46462;32.608;-117.032;2022-10-28T03:30:40;99630.12;;;27.50;39.14
60646;BME280;46462;32.608;-117.032;2022-10-28T03:33:10;99633.78;;;27.39;39.43
60646;BME280;46462;32.608;-117.032;2022-10-28T03:35:40;99636.27;;;27.40;39.39
60646;BME280;46462;32.608;-117.032;2022-10-28T03:38:10;99639.53;;;27.40;39.40
60646;BME280;46462;32.608;-117.032;2022-10-28T03:40:40;99643.28;;;27.37;39.49
60646;BME280;46462;32.608;-117.032;2022-10-28T03:43:10;99642.54;;;27.38;39.35
60646;BME280;46462;32.608;-117.032;2022-10-28T03:45:40;99644.71;;;27.38;39.34
60646;BME280;46462;32.608;-117.032;2022-10-28T03:48:11;99644.68;;;27.31;39.60
60646;BME280;46462;32.608;-117.032;2022-10-28T03:50:41;99645.75;;;27.33;39.47
60646;BME280;46462;32.608;-117.032;2022-10-28T03:53:11;99645.17;;;27.28;39.60
60646;BME280;46462;32.608;-117.032;2022-10-28T03:55:41;99645.74;;;27.29;39.49
60646;BME280;46462;32.608;-117.032;2022-10-28T03:58:11;99645.34;;;27.18;39.92
60646;BME280;46462;32.608;-117.032;2022-10-28T04:00:41;99648.99;;;27.25;39.50
60646;BME280;46462;32.608;-117.032;2022-10-28T04:03:11;99648.84;;;27.23;39.63
60646;BME280;46462;32.608;-117.032;2022-10-28T04:05:41;99650.88;;;27.17;39.88
60646;BME280;46462;32.608;-117.032;2022-10-28T04:08:12;99654.44;;;27.25;39.59
60646;BME280;46462;32.608;-117.032;2022-10-28T04:10:42;99656.05;;;27.22;39.55
60646;BME280;46462;32.608;-117.032;2022-10-28T04:13:12;99655.83;;;27.20;39.57
60646;BME280;46462;32.608;-117.032;2022-10-28T04:15:42;99656.20;;;27.20;39.62
60646;BME280;46462;32.608;-117.032;2022-10-28T04:18:12;99657.02;;;27.15;39.85
60646;BME280;46462;32.608;-117.032;2022-10-28T04:20:43;99658.93;;;27.19;39.59
60646;BME280;46462;32.608;-117.032;2022-10-28T04:23:18;99661.40;;;27.17;39.57
60646;BME280;46462;32.608;-117.032;2022-10-28T04:25:43;99663.77;;;27.08;39.73
60646;BME280;46462;32.608;-117.032;2022-10-28T04:28:13;99665.68;;;27.14;39.61
60646;BME280;46462;32.608;-117.032;2022-10-28T04:30:45;99665.41;;;27.11;39.83
60646;BME280;46462;32.608;-117.032;2022-10-28T04:33:13;99661.61;;;27.02;39.92
60646;BME280;46462;32.608;-117.032;2022-10-28T04:35:44;99661.94;;;27.07;39.73
60646;BME280;46462;32.608;-117.032;2022-10-28T04:38:14;99663.61;;;27.03;39.79
60646;BME280;46462;32.608;-117.032;2022-10-28T04:40:46;99663.43;;;27.09;39.64
60646;BME280;46462;32.608;-117.032;2022-10-28T04:43:14;99666.06;;;27.04;39.65
60646;BME280;46462;32.608;-117.032;2022-10-28T04:45:45;99671.51;;;27.02;39.84
60646;BME280;46462;32.608;-117.032;2022-10-28T04:48:14;99671.01;;;27.04;39.59
60646;BME280;46462;32.608;-117.032;2022-10-28T04:50:45;99671.82;;;26.99;39.78
60646;BME280;46462;32.608;-117.032;2022-10-28T04:53:14;99678.21;;;26.96;39.73
60646;BME280;46462;32.608;-117.032;2022-10-28T04:55:44;99681.16;;;27.00;39.73
60646;BME280;46462;32.608;-117.032;2022-10-28T04:58:14;99680.31;;;26.94;39.81
60646;BME280;46462;32.608;-117.032;2022-10-28T05:00:45;99682.56;;;26.90;39.85
60646;BME280;46462;32.608;-117.032;2022-10-28T05:03:15;99687.26;;;26.90;39.91
60646;BME280;46462;32.608;-117.032;2022-10-28T05:05:45;99693.62;;;26.83;40.08
60646;BME280;46462;32.608;-117.032;2022-10-28T05:08:15;99695.49;;;26.83;39.83
60646;BME280;46462;32.608;-117.032;2022-10-28T05:10:45;99693.59;;;26.84;39.99
60646;BME280;46462;32.608;-117.032;2022-10-28T05:13:15;99692.65;;;26.89;39.74
60646;BME280;46462;32.608;-117.032;2022-10-28T05:15:48;99697.93;;;26.90;39.70
60646;BME280;46462;32.608;-117.032;2022-10-28T05:18:16;99700.11;;;26.87;39.73
60646;BME280;46462;32.608;-117.032;2022-10-28T05:20:46;99702.81;;;26.77;39.92
60646;BME280;46462;32.608;-117.032;2022-10-28T05:23:16;99702.77;;;26.77;39.88
60646;BME280;46462;32.608;-117.032;2022-10-28T05:25:46;99702.56;;;26.71;40.08
60646;BME280;46462;32.608;-117.032;2022-10-28T05:28:17;99703.18;;;26.78;39.75
60646;BME280;46462;32.608;-117.032;2022-10-28T05:30:46;99703.17;;;26.70;39.96
60646;BME280;46462;32.608;-117.032;2022-10-28T05:33:17;99709.07;;;26.86;39.54
60646;BME280;46462;32.608;-117.032;2022-10-28T05:35:47;99710.04;;;26.80;39.64
60646;BME280;46462;32.608;-117.032;2022-10-28T05:38:17;99713.78;;;26.76;39.51
60646;BME280;46462;32.608;-117.032;2022-10-28T05:40:47;99718.42;;;26.61;39.89
60646;BME280;46462;32.608;-117.032;2022-10-28T05:43:17;99721.29;;;26.71;39.79
60646;BME280;46462;32.608;-117.032;2022-10-28T05:45:52;99716.84;;;26.63;39.93
60646;BME280;46462;32.608;-117.032;2022-10-28T05:48:17;99715.30;;;26.45;40.21
60646;BME280;46462;32.608;-117.032;2022-10-28T05:50:48;99717.58;;;26.42;40.34
60646;BME280;46462;32.608;-117.032;2022-10-28T05:53:18;99716.82;;;26.50;40.10
60646;BME280;46462;32.608;-117.032;2022-10-28T05:55:48;99716.58;;;26.49;39.96
60646;BME280;46462;32.608;-117.032;2022-10-28T05:58:18;99715.89;;;26.47;40.00
60646;BME280;46462;32.608;-117.032;2022-10-28T06:00:48;99716.66;;;26.46;40.08
60646;BME280;46462;32.608;-117.032;2022-10-28T06:03:24;99716.60;;;26.53;39.74
60646;BME280;46462;32.608;-117.032;2022-10-28T06:05:48;99718.43;;;26.51;39.90
60646;BME280;46462;32.608;-117.032;2022-10-28T06:08:18;99717.64;;;26.48;39.83
60646;BME280;46462;32.608;-117.032;2022-10-28T06:10:51;99718.12;;;26.45;39.96
60646;BME280;46462;32.608;-117.032;2022-10-28T06:13:19;99720.27;;;26.46;39.88
60646;BME280;46462;32.608;-117.032;2022-10-28T06:15:51;99719.74;;;26.36;40.00
60646;BME280;46462;32.608;-117.032;2022-10-28T06:18:19;99718.84;;;26.36;40.02
60646;BME280;46462;32.608;-117.032;2022-10-28T06:20:54;99718.41;;;26.39;39.84
60646;BME280;46462;32.608;-117.032;2022-10-28T06:23:19;99717.40;;;26.44;39.65
60646;BME280;46462;32.608;-117.032;2022-10-28T06:25:50;99722.90;;;26.40;39.69
60646;BME280;46462;32.608;-117.032;2022-10-28T06:28:20;99721.61;;;26.34;39.85
60646;BME280;46462;32.608;-117.032;2022-10-28T06:30:50;99725.24;;;26.32;39.74
60646;BME280;46462;32.608;-117.032;2022-10-28T06:33:20;99721.53;;;26.28;40.15
60646;BME280;46462;32.608;-117.032;2022-10-28T06:35:50;99719.98;;;26.21;39.94
60646;BME280;46462;32.608;-117.032;2022-10-28T06:38:20;99719.93;;;26.19;40.28
60646;BME280;46462;32.608;-117.032;2022-10-28T06:40:50;99715.58;;;26.17;40.13
60646;BME280;46462;32.608;-117.032;2022-10-28T06:43:20;99714.22;;;26.23;39.82
60646;BME280;46462;32.608;-117.032;2022-10-28T06:45:51;99714.39;;;26.24;39.83
60646;BME280;46462;32.608;-117.032;2022-10-28T06:48:21;99716.10;;;26.17;40.09
60646;BME280;46462;32.608;-117.032;2022-10-28T06:50:53;99719.45;;;26.21;39.83
60646;BME280;46462;32.608;-117.032;2022-10-28T06:53:21;99719.41;;;26.17;39.95
60646;BME280;46462;32.608;-117.032;2022-10-28T06:55:53;99724.59;;;26.12;40.08
60646;BME280;46462;32.608;-117.032;2022-10-28T06:58:22;99727.62;;;26.21;39.94
60646;BME280;46462;32.608;-117.032;2022-10-28T07:00:52;99727.23;;;26.06;40.12
60646;BME280;46462;32.608;-117.032;2022-10-28T07:03:22;99726.70;;;26.14;39.75
60646;BME280;46462;32.608;-117.032;2022-10-28T07:05:52;99726.64;;;26.10;39.83
60646;BME280;46462;32.608;-117.032;2022-10-28T07:08:22;99725.15;;;25.98;40.38
60646;BME280;46462;32.608;-117.032;2022-10-28T07:10:54;99724.24;;;25.90;40.40
60646;BME280;46462;32.608;-117.032;2022-10-28T07:13:22;99727.17;;;25.99;40.05
60646;BME280;46462;32.608;-117.032;2022-10-28T07:15:53;99727.30;;;26.04;39.97
60646;BME280;46462;32.608;-117.032;2022-10-28T07:18:24;99726.25;;;25.94;40.02
60646;BME280;46462;32.608;-117.032;2022-10-28T07:20:56;99725.53;;;25.97;39.76
60646;BME280;46462;32.608;-117.032;2022-10-28T07:23:23;99728.45;;;25.98;39.86
60646;BME280;46462;32.608;-117.032;2022-10-28T07:25:54;99727.50;;;25.97;39.86
60646;BME280;46462;32.608;-117.032;2022-10-28T07:28:24;99726.37;;;26.01;39.87
60646;BME280;46462;32.608;-117.032;2022-10-28T07:30:54;99731.54;;;26.03;39.85
60646;BME280;46462;32.608;-117.032;2022-10-28T07:33:24;99732.92;;;25.93;39.78
60646;BME280;46462;32.608;-117.032;2022-10-28T07:35:54;99732.56;;;25.93;39.95
60646;BME280;46462;32.608;-117.032;2022-10-28T07:38:24;99736.18;;;25.94;39.86
60646;BME280;46462;32.608;-117.032;2022-10-28T07:40:54;99740.04;;;25.97;39.75
60646;BME280;46462;32.608;-117.032;2022-10-28T07:43:24;99742.99;;;25.92;39.78
60646;BME280;46462;32.608;-117.032;2022-10-28T07:45:56;99742.21;;;25.91;39.79
60646;BME280;46462;32.608;-117.032;2022-10-28T07:48:24;99744.19;;;25.91;39.57
60646;BME280;46462;32.608;-117.032;2022-10-28T07:50:55;99747.43;;;25.87;39.71
60646;BME280;46462;32.608;-117.032;2022-10-28T07:53:25;99751.82;;;25.87;39.63
60646;BME280;46462;32.608;-117.032;2022-10-28T07:55:56;99749.43;;;25.86;39.71
60646;BME280;46462;32.608;-117.032;2022-10-28T07:58:25;99754.10;;;25.82;39.83
60646;BME280;46462;32.608;-117.032;2022-10-28T08:00:55;99753.34;;;25.86;39.59
60646;BME280;46462;32.608;-117.032;2022-10-28T08:03:25;99752.04;;;25.79;39.74
60646;BME280;46462;32.608;-117.032;2022-10-28T08:05:59;99750.59;;;25.78;39.58
60646;BME280;46462;32.608;-117.032;2022-10-28T08:08:26;99750.75;;;25.68;39.89
60646;BME280;46462;32.608;-117.032;2022-10-28T08:10:56;99751.25;;;25.66;39.76
60646;BME280;46462;32.608;-117.032;2022-10-28T08:13:26;99752.78;;;25.73;39.74
60646;BME280;46462;32.608;-117.032;2022-10-28T08:15:56;99753.31;;;25.77;39.60
60646;BME280;46462;32.608;-117.032;2022-10-28T08:18:26;99754.44;;;25.71;39.65
60646;BME280;46462;32.608;-117.032;2022-10-28T08:20:59;99755.74;;;25.76;39.66
60646;BME280;46462;32.608;-117.032;2022-10-28T08:23:27;99755.82;;;25.70;39.58
60646;BME280;46462;32.608;-117.032;2022-10-28T08:25:57;99757.59;;;25.63;39.93
60646;BME280;46462;32.608;-117.032;2022-10-28T08:28:27;99755.58;;;25.65;39.84
60646;BME280;46462;32.608;-117.032;2022-10-28T08:31:00;99758.08;;;25.51;39.96
60646;BME280;46462;32.608;-117.032;2022-10-28T08:33:27;99759.41;;;25.36;40.23
60646;BME280;46462;32.608;-117.032;2022-10-28T08:35:57;99765.39;;;25.52;39.88
60646;BME280;46462;32.608;-117.032;2022-10-28T08:38:27;99764.36;;;25.50;40.00
60646;BME280;46462;32.608;-117.032;2022-10-28T08:41:05;99768.28;;;25.55;39.84
60646;BME280;46462;32.608;-117.032;2022-10-28T08:43:36;99767.13;;;25.58;39.54
60646;BME280;46462;32.608;-117.032;2022-10-28T08:46:02;99770.77;;;25.52;39.78
60646;BME280;46462;32.608;-117.032;2022-10-28T08:48:30;99772.48;;;25.63;39.46
60646;BME280;46462;32.608;-117.032;2022-10-28T08:51:02;99773.99;;;25.67;39.39
60646;BME280;46462;32.608;-117.032;2022-10-28T08:53:33;99775.31;;;25.54;39.75
60646;BME280;46462;32.608;-117.032;2022-10-28T08:56:08;99778.00;;;25.67;39.43
60646;BME280;46462;32.608;-117.032;2022-10-28T08:58:31;99776.23;;;25.60;39.44
60646;BME280;46462;32.608;-117.032;2022-10-28T09:00:59;99774.84;;;25.56;39.44
60646;BME280;46462;32.608;-117.032;2022-10-28T09:03:31;99779.91;;;25.64;39.29
60646;BME280;46462;32.608;-117.032;2022-10-28T09:06:01;99778.01;;;25.55;39.36
60646;BME280;46462;32.608;-117.032;2022-10-28T09:08:32;99775.00;;;25.52;39.47
60646;BME280;46462;32.608;-117.032;2022-10-28T09:11:07;99775.54;;;25.53;39.31
60646;BME280;46462;32.608;-117.032;2022-10-28T09:13:39;99778.27;;;25.68;38.93
60646;BME280;46462;32.608;-117.032;2022-10-28T09:16:05;99776.66;;;25.55;39.28
60646;BME280;46462;32.608;-117.032;2022-10-28T09:18:43;99781.07;;;25.67;38.92
60646;BME280;46462;32.608;-117.032;2022-10-28T09:21:04;99779.84;;;25.63;38.89
60646;BME280;46462;32.608;-117.032;2022-10-28T09:23:33;99777.37;;;25.58;39.19
60646;BME280;46462;32.608;-117.032;2022-10-28T09:26:09;99778.66;;;25.58;38.88
60646;BME280;46462;32.608;-117.032;2022-10-28T09:28:43;99772.29;;;25.54;39.22
60646;BME280;46462;32.608;-117.032;2022-10-28T09:31:05;99773.91;;;25.44;39.28
60646;BME280;46462;32.608;-117.032;2022-10-28T09:36:03;99776.25;;;25.42;39.10
60646;BME280;46462;32.608;-117.032;2022-10-28T09:38:33;99775.71;;;25.35;39.43
60646;BME280;46462;32.608;-117.032;2022-10-28T09:41:05;99773.45;;;25.32;39.37
60646;BME280;46462;32.608;-117.032;2022-10-28T09:43:33;99763.08;;;25.41;39.19
60646;BME280;46462;32.608;-117.032;2022-10-28T09:46:06;99761.47;;;25.34;39.33
60646;BME280;46462;32.608;-117.032;2022-10-28T09:48:35;99761.16;;;25.45;39.05
60646;BME280;46462;32.608;-117.032;2022-10-28T09:51:02;99762.53;;;25.31;39.32
60646;BME280;46462;32.608;-117.032;2022-10-28T09:53:39;99764.90;;;25.21;39.51
60646;BME280;46462;32.608;-117.032;2022-10-28T09:56:03;99764.92;;;25.27;39.22
60646;BME280;46462;32.608;-117.032;2022-10-28T09:58:33;99767.00;;;25.20;39.46
60646;BME280;46462;32.608;-117.032;2022-10-28T10:01:03;99764.90;;;25.29;39.09
60646;BME280;46462;32.608;-117.032;2022-10-28T10:03:33;99764.47;;;25.31;39.05
60646;BME280;46462;32.608;-117.032;2022-10-28T10:06:10;99766.41;;;25.32;38.88
60646;BME280;46462;32.608;-117.032;2022-10-28T10:08:33;99771.90;;;25.34;39.03
60646;BME280;46462;32.608;-117.032;2022-10-28T10:11:06;99775.33;;;25.26;39.06
60646;BME280;46462;32.608;-117.032;2022-10-28T10:13:35;99779.68;;;25.30;38.84
60646;BME280;46462;32.608;-117.032;2022-10-28T10:16:12;99778.43;;;25.17;39.12
60646;BME280;46462;32.608;-117.032;2022-10-28T10:18:34;99776.29;;;25.06;39.38
60646;BME280;46462;32.608;-117.032;2022-10-28T10:21:04;99774.94;;;25.15;39.31
60646;BME280;46462;32.608;-117.032;2022-10-28T10:23:36;99776.71;;;25.27;39.00
60646;BME280;46462;32.608;-117.032;2022-10-28T10:26:07;99776.12;;;25.29;38.70
60646;BME280;46462;32.608;-117.032;2022-10-28T10:28:37;99777.61;;;25.20;39.06
60646;BME280;46462;32.608;-117.032;2022-10-28T10:31:06;99780.62;;;25.24;39.24
60646;BME280;46462;32.608;-117.032;2022-10-28T10:33:36;99780.55;;;25.36;38.57
60646;BME280;46462;32.608;-117.032;2022-10-28T10:36:12;99779.35;;;25.13;39.09
60646;BME280;46462;32.608;-117.032;2022-10-28T10:38:35;99777.13;;;25.16;39.07
60646;BME280;46462;32.608;-117.032;2022-10-28T10:41:05;99777.37;;;25.11;39.12
60646;BME280;46462;32.608;-117.032;2022-10-28T10:43:36;99781.84;;;25.23;38.77
60646;BME280;46462;32.608;-117.032;2022-10-28T10:46:12;99781.93;;;25.20;38.83
60646;BME280;46462;32.608;-117.032;2022-10-28T10:48:36;99780.79;;;25.10;39.07
60646;BME280;46462;32.608;-117.032;2022-10-28T10:51:08;99783.01;;;25.03;39.07
60646;BME280;46462;32.608;-117.032;2022-10-28T10:53:38;99783.07;;;25.10;38.91
60646;BME280;46462;32.608;-117.032;2022-10-28T10:56:09;99783.88;;;25.16;38.77
60646;BME280;46462;32.608;-117.032;2022-10-28T10:58:39;99785.66;;;25.26;38.51
60646;BME280;46462;32.608;-117.032;2022-10-28T11:01:07;99783.79;;;25.03;38.80
60646;BME280;46462;32.608;-117.032;2022-10-28T11:03:38;99784.37;;;25.02;39.23
60646;BME280;46462;32.608;-117.032;2022-10-28T11:06:10;99786.58;;;24.91;39.15
60646;BME280;46462;32.608;-117.032;2022-10-28T11:08:38;99786.15;;;24.96;39.05
60646;BME280;46462;32.608;-117.032;2022-10-28T11:11:12;99786.18;;;25.00;38.98
60646;BME280;46462;32.608;-117.032;2022-10-28T11:13:38;99784.30;;;24.80;39.40
60646;BME280;46462;32.608;-117.032;2022-10-28T11:18:40;99792.65;;;24.99;38.80
60646;BME280;46462;32.608;-117.032;2022-10-28T11:23:44;99792.55;;;24.95;38.96
60646;BME280;46462;32.608;-117.032;2022-10-28T11:26:12;99790.41;;;25.05;38.56
60646;BME280;46462;32.608;-117.032;2022-10-28T11:28:49;99790.09;;;24.82;39.35
60646;BME280;46462;32.608;-117.032;2022-10-28T11:31:20;99794.01;;;24.92;38.87
60646;BME280;46462;32.608;-117.032;2022-10-28T11:33:44;99800.63;;;25.02;38.61
60646;BME280;46462;32.608;-117.032;2022-10-28T11:36:16;99803.98;;;24.91;38.85
60646;BME280;46462;32.608;-117.032;2022-10-28T11:38:49;99804.27;;;24.92;38.78
60646;BME280;46462;32.608;-117.032;2022-10-28T11:41:18;99804.37;;;24.96;38.62
60646;BME280;46462;32.608;-117.032;2022-10-28T11:43:48;99804.56;;;24.94;38.55
60646;BME280;46462;32.608;-117.032;2022-10-28T11:46:14;99808.30;;;24.85;38.74
60646;BME280;46462;32.608;-117.032;2022-10-28T11:48:55;99804.00;;;24.99;38.53
60646;BME280;46462;32.608;-117.032;2022-10-28T11:51:19;99806.36;;;24.94;38.57
60646;BME280;46462;32.608;-117.032;2022-10-28T11:53:52;99807.73;;;25.03;38.29
60646;BME280;46462;32.608;-117.032;2022-10-28T11:56:20;99808.31;;;25.00;38.49
60646;BME280;46462;32.608;-117.032;2022-10-28T11:58:46;99812.40;;;24.84;38.80
60646;BME280;46462;32.608;-117.032;2022-10-28T12:01:22;99811.51;;;24.78;38.81
60646;BME280;46462;32.608;-117.032;2022-10-28T12:03:49;99813.59;;;24.95;38.40
60646;BME280;46462;32.608;-117.032;2022-10-28T12:06:16;99813.33;;;24.71;38.83
60646;BME280;46462;32.608;-117.032;2022-10-28T12:08:51;99810.70;;;24.65;39.01
60646;BME280;46462;32.608;-117.032;2022-10-28T12:11:20;99809.36;;;24.71;38.80
60646;BME280;46462;32.608;-117.032;2022-10-28T12:13:48;99808.19;;;24.81;38.66
60646;BME280;46462;32.608;-117.032;2022-10-28T12:16:17;99807.87;;;24.80;38.70
60646;BME280;46462;32.608;-117.032;2022-10-28T12:18:49;99810.80;;;24.79;38.70
60646;BME280;46462;32.608;-117.032;2022-10-28T12:21:17;99813.91;;;24.83;38.50
60646;BME280;46462;32.608;-117.032;2022-10-28T12:23:43;99815.34;;;24.72;38.55
60646;BME280;46462;32.608;-117.032;2022-10-28T12:26:15;99813.62;;;24.78;38.54
60646;BME280;46462;32.608;-117.032;2022-10-28T12:28:44;99814.36;;;24.68;38.86
60646;BME280;46462;32.608;-117.032;2022-10-28T12:31:19;99814.19;;;24.66;38.68
60646;BME280;46462;32.608;-117.032;2022-10-28T12:33:45;99816.26;;;24.72;38.61
60646;BME280;46462;32.608;-117.032;2022-10-28T12:36:19;99817.87;;;24.68;38.66
60646;BME280;46462;32.608;-117.032;2022-10-28T12:38:47;99819.25;;;24.66;38.73
60646;BME280;46462;32.608;-117.032;2022-10-28T12:41:16;99821.17;;;24.67;38.75
60646;BME280;46462;32.608;-117.032;2022-10-28T12:43:46;99822.01;;;24.75;38.43
60646;BME280;46462;32.608;-117.032;2022-10-28T12:46:19;99823.80;;;24.67;38.38
60646;BME280;46462;32.608;-117.032;2022-10-28T12:48:47;99824.48;;;24.62;38.50
60646;BME280;46462;32.608;-117.032;2022-10-28T12:51:18;99826.44;;;24.73;38.18
60646;BME280;46462;32.608;-117.032;2022-10-28T12:53:48;99831.63;;;24.55;38.61
60646;BME280;46462;32.608;-117.032;2022-10-28T12:56:17;99830.81;;;24.64;38.38